createdAt,value
2022-12-01T00:01:39.002Z,7.05
2022-12-01T00:04:07.212Z,11.52
2022-12-01T00:06:35.301Z,6.72
2022-12-01T00:09:22.038Z,11.60
2022-12-01T00:11:50.408Z,7.90
2022-12-01T00:14:18.931Z,6.30
2022-12-01T00:16:47.169Z,8.10
2022-12-01T00:19:15.303Z,8.35
2022-12-01T00:21:43.367Z,7.35
2022-12-01T00:24:13.277Z,11.18
2022-12-01T00:26:41.595Z,9.48
2022-12-01T00:29:09.998Z,7.13
2022-12-01T00:31:38.246Z,8.10
2022-12-01T00:34:11.061Z,8.95
2022-12-01T00:36:40.600Z,7.15
2022-12-01T00:39:09.262Z,10.73
2022-12-01T00:41:38.828Z,16.13
2022-12-01T00:44:07.178Z,14.60
2022-12-01T00:46:35.299Z,11.35
2022-12-01T00:49:03.357Z,15.25
2022-12-01T00:51:31.658Z,10.98
2022-12-01T00:53:59.807Z,10.90
2022-12-01T00:56:28.188Z,13.82
2022-12-01T00:58:57.947Z,14.82
2022-12-01T01:01:26.267Z,11.55
2022-12-01T01:03:54.515Z,15.82
2022-12-01T01:06:22.692Z,12.27
2022-12-01T01:08:50.839Z,15.27
2022-12-01T01:11:19.041Z,13.70
2022-12-01T01:13:47.189Z,9.10
2022-12-01T01:16:19.856Z,9.70
2022-12-01T01:18:48.249Z,8.35
2022-12-01T01:21:18.191Z,16.08
2022-12-01T01:23:46.604Z,11.88
2022-12-01T01:26:16.575Z,12.90
2022-12-01T01:28:44.791Z,18.92
2022-12-01T01:31:17.852Z,17.75
2022-12-01T01:33:46.149Z,16.00
2022-12-01T01:36:14.862Z,11.52
2022-12-01T01:38:43.325Z,11.13
2022-12-01T01:41:12.144Z,10.88
2022-12-01T01:43:45.850Z,10.43
2022-12-01T01:46:16.164Z,13.57
2022-12-01T01:48:49.571Z,14.48
2022-12-01T01:51:21.945Z,15.40
2022-12-01T01:53:52.143Z,11.43
2022-12-01T01:58:48.736Z,21.30
2022-12-01T02:01:16.855Z,12.25
2022-12-01T02:03:47.510Z,9.57
2022-12-01T02:06:16.357Z,14.05
2022-12-01T02:08:44.581Z,11.15
2022-12-01T02:11:34.685Z,11.95
2022-12-01T02:14:10.012Z,12.43
2022-12-01T02:16:48.252Z,9.98
2022-12-01T02:19:42.347Z,8.45
2022-12-01T02:22:20.709Z,11.18
2022-12-01T02:25:24.568Z,7.18
2022-12-01T02:28:31.071Z,11.82
2022-12-01T02:31:05.828Z,15.13
2022-12-01T02:33:39.755Z,11.02
2022-12-01T02:36:17.027Z,7.97
2022-12-01T02:38:53.245Z,6.75
2022-12-01T02:41:29.660Z,10.32
2022-12-01T02:44:06.988Z,11.70
2022-12-01T02:46:41.908Z,12.85
2022-12-01T02:49:15.590Z,14.73
2022-12-01T02:51:45.814Z,7.40
2022-12-01T02:56:45.776Z,10.80
2022-12-01T02:59:16.368Z,10.07
2022-12-01T03:02:07.804Z,13.40
2022-12-01T03:04:47.801Z,11.57
2022-12-01T03:07:33.264Z,9.38
2022-12-01T03:10:13.351Z,11.57
2022-12-01T03:12:51.872Z,10.88
2022-12-01T03:15:32.266Z,11.50
2022-12-01T03:18:09.000Z,7.47
2022-12-01T03:20:42.311Z,11.43
2022-12-01T03:23:14.980Z,9.43
2022-12-01T03:25:48.515Z,8.13
2022-12-01T03:28:22.643Z,9.15
2022-12-01T03:30:56.260Z,9.35
2022-12-01T03:33:32.712Z,4.97
2022-12-01T03:36:04.791Z,9.90
2022-12-01T03:38:36.383Z,8.07
2022-12-01T03:41:09.519Z,6.90
2022-12-01T03:43:42.253Z,12.20
2022-12-01T03:46:13.706Z,8.30
2022-12-01T03:48:43.614Z,8.82
2022-12-01T03:51:16.944Z,14.40
2022-12-01T03:53:52.873Z,16.42
2022-12-01T03:56:25.371Z,10.77
2022-12-01T03:58:58.212Z,8.50
2022-12-01T04:01:28.347Z,9.35
2022-12-01T04:06:25.832Z,12.75
2022-12-01T04:08:53.939Z,9.18
2022-12-01T04:11:39.437Z,12.35
2022-12-01T04:14:07.525Z,9.90
2022-12-01T04:16:35.730Z,10.63
2022-12-01T04:19:05.514Z,11.35
2022-12-01T04:21:33.695Z,8.40
2022-12-01T04:24:01.933Z,14.57
2022-12-01T04:26:31.014Z,9.27
2022-12-01T04:28:59.685Z,10.60
2022-12-01T04:31:28.510Z,17.65
2022-12-01T04:33:56.866Z,13.48
2022-12-01T04:36:27.227Z,11.70
2022-12-01T04:38:55.451Z,13.15
2022-12-01T04:41:23.727Z,11.25
2022-12-01T04:43:54.735Z,13.80
2022-12-01T04:46:23.273Z,13.40
2022-12-01T04:48:51.707Z,15.90
2022-12-01T04:51:21.530Z,10.40
2022-12-01T04:53:51.427Z,9.90
2022-12-01T04:56:19.941Z,13.05
2022-12-01T04:58:48.107Z,12.80
2022-12-01T05:01:18.372Z,18.42
2022-12-01T05:03:50.372Z,10.38
2022-12-01T05:06:20.113Z,5.43
2022-12-01T05:08:48.616Z,6.28
2022-12-01T05:11:19.681Z,5.25
2022-12-01T05:13:49.536Z,2.67
2022-12-01T05:16:20.243Z,2.50
2022-12-01T05:19:12.285Z,1.35
2022-12-01T05:21:39.940Z,6.95
2022-12-01T05:24:08.602Z,9.82
2022-12-01T05:26:38.318Z,1.75
2022-12-01T05:29:08.704Z,2.53
2022-12-01T05:31:36.945Z,3.65
2022-12-01T05:34:05.318Z,1.35
2022-12-01T05:36:33.923Z,5.07
2022-12-01T05:39:02.051Z,12.63
2022-12-01T05:41:30.121Z,5.55
2022-12-01T05:43:59.665Z,1.80
2022-12-01T05:46:27.852Z,1.45
2022-12-01T05:48:56.095Z,3.45
2022-12-01T05:51:24.573Z,3.53
2022-12-01T05:53:52.688Z,7.30
2022-12-01T05:56:20.895Z,5.25
2022-12-01T05:58:48.919Z,4.65
2022-12-01T06:01:18.596Z,3.83
2022-12-01T06:03:46.821Z,8.05
2022-12-01T06:06:15.223Z,7.88
2022-12-01T06:08:43.339Z,5.90
2022-12-01T06:11:11.495Z,2.75
2022-12-01T06:13:40.075Z,4.13
2022-12-01T06:16:09.027Z,3.10
2022-12-01T06:18:39.863Z,2.53
2022-12-01T06:21:08.384Z,5.18
2022-12-01T06:23:36.610Z,1.80
2022-12-01T06:26:05.020Z,4.35
2022-12-01T06:28:33.245Z,4.35
2022-12-01T06:31:03.742Z,4.53
2022-12-01T06:33:32.709Z,1.33
2022-12-01T06:36:03.750Z,3.55
2022-12-01T06:38:33.358Z,7.15
2022-12-01T06:41:01.489Z,3.95
2022-12-01T06:43:29.819Z,3.80
2022-12-01T06:46:01.955Z,3.80
2022-12-01T06:48:30.664Z,5.63
2022-12-01T06:50:59.000Z,4.43
2022-12-01T06:53:28.845Z,9.00
2022-12-01T06:56:01.251Z,5.97
2022-12-01T06:58:29.928Z,4.57
2022-12-01T07:00:58.956Z,5.38
2022-12-01T07:03:27.408Z,5.57
2022-12-01T07:06:00.084Z,5.35
2022-12-01T07:08:31.004Z,7.68
2022-12-01T07:11:00.499Z,10.18
2022-12-01T07:13:33.137Z,9.65
2022-12-01T07:16:02.374Z,3.58
2022-12-01T07:18:31.038Z,4.47
2022-12-01T07:21:02.264Z,9.40
2022-12-01T07:23:32.450Z,10.13
2022-12-01T07:28:31.445Z,3.92
2022-12-01T07:31:04.256Z,3.33
2022-12-01T07:33:33.032Z,6.60
2022-12-01T07:36:01.644Z,6.55
2022-12-01T07:38:33.591Z,3.50
2022-12-01T07:41:05.761Z,7.28
2022-12-01T07:43:34.599Z,4.60
2022-12-01T07:46:08.819Z,5.32
2022-12-01T07:48:38.382Z,3.92
2022-12-01T07:51:06.751Z,4.93
2022-12-01T07:53:40.045Z,6.80
2022-12-01T07:56:09.014Z,9.10
2022-12-01T07:58:42.859Z,8.68
2022-12-01T08:01:13.274Z,5.00
2022-12-01T08:03:42.513Z,7.93
2022-12-01T08:06:11.589Z,5.95
2022-12-01T08:08:42.798Z,7.00
2022-12-01T08:11:13.538Z,7.20
2022-12-01T08:13:43.862Z,11.63
2022-12-01T08:16:13.643Z,6.75
2022-12-01T08:18:42.964Z,7.07
2022-12-01T08:21:13.000Z,5.43
2022-12-01T08:23:42.802Z,6.03
2022-12-01T08:26:14.030Z,7.72
2022-12-01T08:28:42.754Z,7.50
2022-12-01T08:31:12.248Z,5.13
2022-12-01T08:33:40.406Z,8.25
2022-12-01T08:36:09.124Z,4.63
2022-12-01T08:38:37.265Z,11.02
2022-12-01T08:41:08.604Z,6.30
2022-12-01T08:46:29.627Z,8.68
2022-12-01T08:48:58.180Z,9.13
2022-12-01T08:51:27.321Z,14.07
2022-12-01T08:53:56.754Z,9.52
2022-12-01T08:56:28.151Z,13.63
2022-12-01T08:58:56.641Z,10.45
2022-12-01T09:01:26.472Z,6.95
2022-12-01T09:04:05.916Z,5.20
2022-12-01T09:06:39.973Z,6.93
2022-12-01T09:09:08.168Z,6.65
2022-12-01T09:11:37.885Z,11.65
2022-12-01T09:14:06.300Z,11.05
2022-12-01T09:16:34.839Z,7.13
2022-12-01T09:19:03.792Z,8.05
2022-12-01T09:21:34.881Z,9.18
2022-12-01T09:24:03.912Z,10.25
2022-12-01T09:26:32.463Z,15.50
2022-12-01T09:29:04.885Z,15.70
2022-12-01T09:31:34.486Z,11.00
2022-12-01T09:34:04.860Z,26.02
2022-12-01T09:36:34.379Z,12.02
2022-12-01T09:39:02.991Z,12.57
2022-12-01T09:41:34.612Z,11.48
2022-12-01T09:44:14.033Z,12.82
2022-12-01T09:46:47.488Z,15.60
2022-12-01T09:49:20.103Z,10.25
2022-12-01T09:51:48.295Z,31.42
2022-12-01T09:54:16.666Z,31.52
2022-12-01T09:56:49.499Z,23.00
2022-12-01T09:59:23.850Z,16.38
2022-12-01T10:01:56.443Z,18.02
2022-12-01T10:04:30.071Z,11.70
2022-12-01T10:07:02.311Z,10.05
2022-12-01T10:09:37.759Z,9.43
2022-12-01T10:12:14.565Z,12.23
2022-12-01T10:14:46.093Z,7.18
2022-12-01T10:17:28.470Z,15.10
2022-12-01T10:20:02.291Z,11.35
2022-12-01T10:22:46.568Z,11.10
2022-12-01T10:25:23.416Z,20.10
2022-12-01T10:28:13.851Z,23.70
2022-12-01T10:30:51.010Z,17.55
2022-12-01T10:33:25.369Z,26.23
2022-12-01T10:35:54.902Z,14.95
2022-12-01T10:38:28.619Z,12.88
2022-12-01T10:41:00.979Z,18.02
2022-12-01T10:43:34.333Z,14.15
2022-12-01T10:46:09.690Z,10.32
2022-12-01T10:48:53.951Z,14.00
2022-12-01T10:51:22.772Z,7.78
2022-12-01T10:53:51.497Z,7.05
2022-12-01T10:56:21.925Z,8.90
2022-12-01T10:58:52.954Z,9.48
2022-12-01T11:01:25.388Z,12.52
2022-12-01T11:03:58.126Z,7.93
2022-12-01T11:06:30.684Z,6.50
2022-12-01T11:09:01.405Z,7.35
2022-12-01T11:11:33.166Z,6.22
2022-12-01T11:14:06.133Z,7.78
2022-12-01T11:16:44.114Z,11.30
2022-12-01T11:19:29.353Z,12.55
2022-12-01T11:21:58.956Z,9.85
2022-12-01T11:24:31.100Z,10.63
2022-12-01T11:27:00.960Z,9.68
2022-12-01T11:29:36.725Z,10.05
2022-12-01T11:32:17.909Z,9.82
2022-12-01T11:34:51.831Z,11.10
2022-12-01T11:37:22.835Z,14.73
2022-12-01T11:39:53.023Z,13.15
2022-12-01T11:42:29.114Z,11.45
2022-12-01T11:45:06.497Z,11.48
2022-12-01T11:47:36.011Z,8.73
2022-12-01T11:50:24.185Z,9.77
2022-12-01T11:52:52.341Z,11.90
2022-12-01T11:55:24.762Z,9.43
2022-12-01T11:57:55.922Z,8.98
2022-12-01T12:00:26.403Z,8.32
2022-12-01T12:03:20.234Z,14.85
2022-12-01T12:06:39.125Z,8.52
2022-12-01T12:11:41.507Z,12.50
2022-12-01T12:14:31.725Z,13.50
2022-12-01T12:20:07.600Z,11.82
2022-12-01T12:22:52.342Z,9.02
2022-12-01T12:25:32.370Z,7.13
2022-12-01T12:28:17.108Z,6.80
2022-12-01T12:30:57.277Z,4.13
2022-12-01T12:36:25.650Z,10.00
2022-12-01T12:39:05.922Z,6.38
2022-12-01T12:44:30.014Z,6.35
2022-12-01T12:47:14.642Z,4.35
2022-12-01T12:49:50.376Z,5.63
2022-12-01T12:52:25.126Z,6.95
2022-12-01T12:54:58.763Z,7.13
2022-12-01T12:57:32.717Z,8.35
2022-12-01T13:00:04.329Z,6.68
2022-12-01T13:02:37.677Z,7.60
2022-12-01T13:05:11.549Z,3.47
2022-12-01T13:07:46.950Z,6.30
2022-12-01T13:10:29.787Z,6.03
2022-12-01T13:13:04.646Z,5.22
2022-12-01T13:15:36.555Z,6.93
2022-12-01T13:18:13.684Z,7.13
2022-12-01T13:20:42.585Z,4.82
2022-12-01T13:23:19.127Z,4.45
2022-12-01T13:25:51.728Z,6.95
2022-12-01T13:28:23.727Z,7.80
2022-12-01T13:31:04.046Z,5.55
2022-12-01T13:33:33.911Z,5.20
2022-12-01T13:36:38.206Z,6.65
2022-12-01T13:39:00.331Z,3.95
2022-12-01T13:41:31.321Z,3.55
2022-12-01T13:44:02.259Z,3.40
2022-12-01T13:46:33.148Z,3.78
2022-12-01T13:49:04.541Z,4.22
2022-12-01T13:52:05.679Z,6.00
2022-12-01T13:54:38.453Z,6.28
2022-12-01T13:57:12.659Z,8.05
2022-12-01T14:00:21.620Z,5.68
2022-12-01T14:03:38.859Z,4.60
2022-12-01T14:06:22.177Z,4.05
2022-12-01T14:08:54.683Z,6.03
2022-12-01T14:11:26.457Z,9.88
2022-12-01T14:13:58.857Z,6.45
2022-12-01T14:16:46.198Z,7.45
2022-12-01T14:19:30.872Z,11.13
2022-12-01T14:22:03.017Z,6.22
2022-12-01T14:24:36.224Z,5.95
2022-12-01T14:27:07.667Z,3.83
2022-12-01T14:29:38.921Z,21.30
2022-12-01T14:32:22.544Z,6.75
2022-12-01T14:34:57.216Z,4.00
2022-12-01T14:37:34.745Z,5.03
2022-12-01T14:40:08.523Z,6.82
2022-12-01T14:43:01.581Z,5.05
2022-12-01T14:45:35.307Z,5.07
2022-12-01T14:48:06.239Z,6.80
2022-12-01T14:50:46.435Z,5.80
2022-12-01T14:53:23.890Z,6.93
2022-12-01T14:55:57.570Z,4.50
2022-12-01T14:58:29.141Z,2.72
2022-12-01T15:01:04.025Z,2.70
2022-12-01T15:03:37.201Z,16.65
2022-12-01T15:06:05.862Z,6.95
2022-12-01T15:08:53.275Z,7.60
2022-12-01T15:11:26.679Z,6.07
2022-12-01T15:13:58.032Z,2.75
2022-12-01T15:16:30.460Z,2.65
2022-12-01T15:18:58.871Z,4.97
2022-12-01T15:21:28.799Z,4.78
2022-12-01T15:23:59.704Z,5.85
2022-12-01T15:26:31.366Z,2.55
2022-12-01T15:29:16.948Z,2.70
2022-12-01T15:31:48.334Z,7.50
2022-12-01T15:34:19.537Z,4.28
2022-12-01T15:36:48.466Z,9.77
2022-12-01T15:39:19.595Z,6.43
2022-12-01T15:41:54.401Z,3.40
2022-12-01T15:44:29.687Z,4.97
2022-12-01T15:46:57.943Z,3.53
2022-12-01T15:49:30.011Z,4.95
2022-12-01T15:52:08.826Z,2.88
2022-12-01T15:54:38.915Z,6.65
2022-12-01T15:57:08.116Z,8.52
2022-12-01T15:59:41.824Z,4.68
2022-12-01T16:02:28.920Z,6.57
2022-12-01T16:05:05.603Z,5.70
2022-12-01T16:08:11.937Z,4.28
2022-12-01T16:10:28.671Z,8.02
2022-12-01T16:13:30.888Z,3.58
2022-12-01T16:16:00.501Z,11.57
2022-12-01T16:18:32.937Z,3.92
2022-12-01T16:21:04.381Z,6.28
2022-12-01T16:23:33.523Z,6.38
2022-12-01T16:26:02.419Z,8.55
2022-12-01T16:28:35.849Z,5.95
2022-12-01T16:31:10.182Z,6.07
2022-12-01T16:33:40.878Z,7.57
2022-12-01T16:36:09.812Z,12.60
2022-12-01T16:38:39.197Z,7.60
2022-12-01T16:41:16.994Z,8.73
2022-12-01T16:44:05.377Z,8.98
2022-12-01T16:46:35.378Z,5.18
2022-12-01T16:49:03.540Z,11.38
2022-12-01T16:51:54.395Z,10.50
2022-12-01T16:54:20.265Z,8.77
2022-12-01T16:56:49.565Z,23.38
2022-12-01T16:59:17.732Z,22.38
2022-12-01T17:01:47.474Z,19.42
2022-12-01T17:04:15.971Z,16.42
2022-12-01T17:06:44.141Z,16.17
2022-12-01T17:09:12.415Z,31.73
2022-12-01T17:11:40.650Z,25.98
2022-12-01T17:14:10.252Z,29.38
2022-12-01T17:16:38.886Z,25.95
2022-12-01T17:19:08.455Z,18.20
2022-12-01T17:21:36.576Z,20.50
2022-12-01T17:24:05.146Z,18.75
2022-12-01T17:26:33.322Z,15.70
2022-12-01T17:29:01.707Z,17.10
2022-12-01T17:31:29.948Z,18.95
2022-12-01T17:33:57.989Z,14.10
2022-12-01T17:36:27.568Z,16.10
2022-12-01T17:39:01.305Z,20.75
2022-12-01T17:41:35.822Z,17.60
2022-12-01T17:44:07.858Z,12.38
2022-12-01T17:46:36.028Z,14.43
2022-12-01T17:49:09.551Z,21.33
2022-12-01T17:51:39.694Z,23.08
2022-12-01T17:56:36.163Z,18.30
2022-12-01T17:59:04.275Z,16.08
2022-12-01T18:01:55.257Z,22.02
2022-12-01T18:04:23.412Z,18.58
2022-12-01T18:06:54.476Z,27.52
2022-12-01T18:09:23.452Z,28.75
2022-12-01T18:11:57.205Z,27.05
2022-12-01T18:14:37.013Z,29.30
2022-12-01T18:17:05.509Z,29.75
2022-12-01T18:19:33.810Z,24.48
2022-12-01T18:22:03.397Z,19.65
2022-12-01T18:24:31.639Z,43.85
2022-12-01T18:26:59.776Z,27.30
2022-12-01T18:29:30.459Z,25.88
2022-12-01T18:32:00.474Z,21.80
2022-12-01T18:34:30.608Z,20.08
2022-12-01T18:39:28.325Z,19.05
2022-12-01T18:41:56.570Z,18.63
2022-12-01T18:44:24.709Z,8.43
2022-12-01T18:46:53.112Z,9.85
2022-12-01T18:49:21.299Z,17.17
2022-12-01T18:51:49.402Z,10.45
2022-12-01T18:54:18.101Z,8.73
2022-12-01T18:56:47.762Z,15.55
2022-12-01T18:59:17.412Z,8.43
2022-12-01T19:01:46.627Z,10.32
2022-12-01T19:04:17.552Z,10.47
2022-12-01T19:06:46.784Z,11.40
2022-12-01T19:09:18.173Z,11.63
2022-12-01T19:11:48.149Z,12.15
2022-12-01T19:14:19.820Z,10.23
2022-12-01T19:16:48.261Z,15.52
2022-12-01T19:19:16.693Z,10.60
2022-12-01T19:21:45.496Z,12.13
2022-12-01T19:24:13.706Z,9.20
2022-12-01T19:26:41.821Z,11.95
2022-12-01T19:29:11.498Z,8.93
2022-12-01T19:31:40.180Z,10.77
2022-12-01T19:34:08.604Z,9.90
2022-12-01T19:36:37.547Z,9.80
2022-12-01T19:39:07.782Z,12.30
2022-12-01T19:41:36.107Z,10.30
2022-12-01T19:44:04.311Z,13.20
2022-12-01T19:46:33.956Z,15.57
2022-12-01T19:49:03.176Z,17.60
2022-12-01T19:51:35.272Z,16.65
2022-12-01T19:54:04.340Z,12.68
2022-12-01T19:56:32.784Z,23.75
2022-12-01T19:59:01.663Z,18.15
2022-12-01T20:01:30.208Z,12.85
2022-12-01T20:03:59.683Z,13.88
2022-12-01T20:06:32.168Z,11.65
2022-12-01T20:09:04.321Z,12.90
2022-12-01T20:11:35.343Z,19.98
2022-12-01T20:14:04.887Z,26.48
2022-12-01T20:16:33.483Z,22.23
2022-12-01T20:19:05.528Z,14.70
2022-12-01T20:21:35.455Z,11.48
2022-12-01T20:24:05.695Z,18.17
2022-12-01T20:29:05.685Z,13.55
2022-12-01T20:31:35.536Z,16.85
2022-12-01T20:34:09.134Z,14.63
2022-12-01T20:36:37.446Z,16.15
2022-12-01T20:39:06.570Z,13.38
2022-12-01T20:41:35.243Z,13.38
2022-12-01T20:44:07.761Z,13.82
2022-12-01T20:46:38.222Z,9.27
2022-12-01T20:49:08.444Z,10.60
2022-12-01T20:51:36.510Z,15.38
2022-12-01T20:56:55.823Z,29.45
2022-12-01T20:59:24.530Z,37.85
2022-12-01T21:01:54.297Z,25.50
2022-12-01T21:04:24.403Z,20.30
2022-12-01T21:06:53.619Z,12.45
2022-12-01T21:09:21.751Z,15.27
2022-12-01T21:12:20.531Z,8.07
2022-12-01T21:14:56.215Z,8.20
2022-12-01T21:17:34.467Z,11.15
2022-12-01T21:20:24.979Z,9.40
2022-12-01T21:22:59.720Z,11.50
2022-12-01T21:25:33.246Z,15.10
2022-12-01T21:28:22.503Z,13.27
2022-12-01T21:30:54.132Z,5.93
2022-12-01T21:33:29.307Z,12.90
2022-12-01T21:36:01.154Z,12.05
2022-12-01T21:38:29.809Z,12.02
2022-12-01T21:40:58.351Z,9.15
2022-12-01T21:43:38.596Z,11.75
2022-12-01T21:46:15.297Z,11.02
2022-12-01T21:48:44.585Z,15.40
2022-12-01T21:51:23.331Z,19.17
2022-12-01T21:53:53.079Z,16.75
2022-12-01T21:56:23.004Z,10.35
2022-12-01T21:58:51.871Z,10.80
2022-12-01T22:01:26.118Z,10.43
2022-12-01T22:04:01.810Z,10.18
2022-12-01T22:06:37.048Z,18.67
2022-12-01T22:09:20.945Z,9.85
2022-12-01T22:11:53.072Z,8.38
2022-12-01T22:14:25.444Z,7.63
2022-12-01T22:17:00.624Z,8.13
2022-12-01T22:19:31.922Z,10.82
2022-12-01T22:22:18.729Z,8.52
2022-12-01T22:24:48.874Z,7.45
2022-12-01T22:27:29.391Z,7.28
2022-12-01T22:32:57.233Z,10.82
2022-12-01T22:35:31.131Z,16.00
2022-12-01T22:38:27.702Z,18.55
2022-12-01T22:40:59.363Z,12.15
2022-12-01T22:43:44.700Z,11.73
2022-12-01T22:46:30.592Z,9.07
2022-12-01T22:49:00.789Z,6.72
2022-12-01T22:54:07.561Z,12.82
2022-12-01T22:56:39.878Z,12.55
2022-12-01T22:59:16.168Z,12.25
2022-12-01T23:01:52.499Z,10.38
2022-12-01T23:04:25.075Z,10.63
2022-12-01T23:07:28.921Z,9.32
2022-12-01T23:10:03.727Z,9.43
2022-12-01T23:12:33.568Z,10.30
2022-12-01T23:15:16.656Z,15.95
2022-12-01T23:17:44.755Z,23.00
2022-12-01T23:20:29.604Z,10.75
2022-12-01T23:23:00.174Z,16.88
2022-12-01T23:25:30.195Z,12.52
2022-12-01T23:28:04.204Z,9.07
2022-12-01T23:30:34.113Z,10.35
2022-12-01T23:33:16.523Z,12.07
2022-12-01T23:35:49.257Z,15.88
2022-12-01T23:38:20.396Z,13.35
2022-12-01T23:40:51.453Z,14.70
2022-12-01T23:43:22.243Z,17.80
2022-12-01T23:45:57.715Z,10.80
2022-12-01T23:48:33.386Z,14.48
2022-12-01T23:51:01.487Z,22.10
2022-12-01T23:53:32.204Z,17.55
2022-12-01T23:56:05.739Z,14.77
2022-12-01T23:58:35.460Z,17.35
